Ana Sayfa
METAR-TAF:

METAR-TAF

Havaalanları :

Roma-Fiumicino, İtalya

Fiumicino

Enlem: 41-48N, Boylam: 012-14E, yükseklik: 2 m

Güncel hava durumu gözlemi

Rapor saat 21:50 UTC de 26 dakika önce yapıldı.
Rüzgar kuzey/kuzeybatıdan 5 kt
Sıcaklık 8°C
Nem 71%
Basınç 1011 hPa
Görüş mesafesi 10 km veya daha fazla
1500 m altında bulut yok ve kümülonimbus yok

METAR: LIRF 212150Z 34005KT CAVOK 08/03 Q1011 NOSIG

Saat: 23:16 (22:16 UTC)

Tahmin

Rapor saat 17:00 UTC de 5 saat ve 16 dakika önce yapıldı.
Ayın 21'si saat 18 UTC'den ayın 22'si saat 24 UTC'ye kadar geçerli Tahmin
Rüzgar kuzey/kuzeydoğudan 10 kt
Görüş mesafesi 10 km veya daha fazla
3000 ft yükseklikte parçalı bulutlu
Dönüşüyor
ayın 22'si saat 07 UTC'den ayın 22'si saat 09 UTC'ye kadar
Rüzgar güneydoğudan 10 kt

TAF: LIRF 211700Z 2118/2224 02010KT 9999 SCT030 BECMG 2207/2209 13010KT

4.000'den fazla havaalanı için hava durumu gözlemleri ve tahminleri (METAR ve TAF raporları).

Kullanılabilir istasyonlar harita üzerinde sarı ve kırmızı noktalarla gösterilir.

İstasyonun adını görmek için fareyi noktanın üzerinde gezdirin.

Sonrasında hava gözlem ve tahminlerini görmek için tıklayın.

Haritayı değiştirmek için: yaklaştırmak için siyah artı işaretli yeşil düğmeye ve uzaklaştırmak için de eksi işaretli düğmeye hızla tıklayın; bitişik haritalar için yeşil okları kullanın.


METAR-TAF: